Sigas Ingrid — VRCQ6 — position and weather

sailwx.info

Track history (hours):
 
Tides and Currents Weather Stations Pressure Air Temp Water Temp Dewpoint Dewpoint Depression Visibility Wind Speed Wind Dir Waves Ship Positions

Sigas Ingrid

Last reported at 2016-Aug-11 02:29 UTC. Time now 2016-Aug-27 15:08 UTC.
Position N 01°55' E 102°19'.
Warning: this ship's position is 16 days out of date.

Length 100 m; draft 5.3 m.

Type: Ship (hazmat cat A). MMSI: 477658800.

Date/timePositionNaut miles runAvg speedWind from/ knotsBaromVisibWave heightAir tempDewpointWater temp
2016-Aug-11 02:29N 01°55' E 102°19'1313.3
2016-Aug-11 01:33N 01°49' E 102°30'1813.8
2016-Aug-11 00:13N 01°42' E 102°47'60 2.0
2016-Aug-09 17:29N 01°10' E 103°38'4 1.8
2016-Aug-09 15:21N 01°14' E 103°39'0 0.0
2016-Aug-09 07:09N 01°14' E 103°39'7911.3
2016-Aug-09 00:06N 01°48' E 102°28'713.3
2016-Aug-08 23:33N 01°51' E 102°21'25012.9
2016-Aug-08 04:07N 05°18' E 100°00'713.2
2016-Aug-08 03:33N 05°26' E 100°01'1511.7
2016-Aug-08 02:15N 05°32' E 100°15'710.3
2016-Aug-08 01:33N 05°27' E 100°21'5 5.0
2016-Aug-08 00:29N 05°22' E 100°22'0 0.0
2016-Aug-07 23:29N 05°22' E 100°22'0 0.0
2016-Aug-07 22:29N 05°22' E 100°22'0 0.0
2016-Aug-07 21:29N 05°22' E 100°22'0 0.0
2016-Aug-07 20:29N 05°22' E 100°22'0 0.0
2016-Aug-07 19:29N 05°22' E 100°22'0 0.0
2016-Aug-07 18:29N 05°22' E 100°22'0 0.0
2016-Aug-07 17:29N 05°22' E 100°22'0 0.0
2016-Aug-07 16:29N 05°22' E 100°22'0 0.0
2016-Aug-07 15:29N 05°22' E 100°22'0 0.0
2016-Aug-07 14:29N 05°22' E 100°22'0 0.0
2016-Aug-07 13:29N 05°22' E 100°22'0 0.0
2016-Aug-07 12:29N 05°22' E 100°22'0 0.0
2016-Aug-07 11:29N 05°22' E 100°22'0 0.0
2016-Aug-07 10:17N 05°22' E 100°22'0 0.0
2016-Aug-07 09:29N 05°22' E 100°22'0 0.0
2016-Aug-07 08:29N 05°22' E 100°22'0 0.0
2016-Aug-07 07:29N 05°22' E 100°22'0 0.0
2016-Aug-07 06:29N 05°22' E 100°22'0 0.0
2016-Aug-07 04:29N 05°22' E 100°22'0 0.0
2016-Aug-07 03:29N 05°22' E 100°22'0 0.0
2016-Aug-07 02:29N 05°22' E 100°22'1 0.8
2016-Aug-07 01:33N 05°23' E 100°22'3 3.1
2016-Aug-07 00:32N 05°26' E 100°22'0 0.0
2016-Aug-06 23:33N 05°26' E 100°22'4 3.8
2016-Aug-06 22:33N 05°30' E 100°20'  
Track history (hours):
 
Tides and Currents Weather Stations Pressure Air Temp Water Temp Dewpoint Dewpoint Depression Visibility Wind Speed Wind Dir Waves Ship Positions

Sigas Ingrid

Last reported at 2016-Aug-11 02:29 UTC. Time now 2016-Aug-27 15:08 UTC.
Position N 01°55' E 102°19'.
Warning: this ship's position is 16 days out of date.

Length 100 m; draft 5.3 m.

Type: Ship (hazmat cat A). MMSI: 477658800.

Date/timePositionNaut miles runAvg speedWind from/ knotsBaromVisibWave heightAir tempDewpointWater temp
2016-Aug-11 02:29N 01°55' E 102°19'1313.3
2016-Aug-11 01:33N 01°49' E 102°30'1813.8
2016-Aug-11 00:13N 01°42' E 102°47'60 2.0
2016-Aug-09 17:29N 01°10' E 103°38'4 1.8
2016-Aug-09 15:21N 01°14' E 103°39'0 0.0
2016-Aug-09 07:09N 01°14' E 103°39'7911.3
2016-Aug-09 00:06N 01°48' E 102°28'713.3
2016-Aug-08 23:33N 01°51' E 102°21'25012.9
2016-Aug-08 04:07N 05°18' E 100°00'713.2
2016-Aug-08 03:33N 05°26' E 100°01'1511.7
2016-Aug-08 02:15N 05°32' E 100°15'710.3
2016-Aug-08 01:33N 05°27' E 100°21'5 5.0
2016-Aug-08 00:29N 05°22' E 100°22'0 0.0
2016-Aug-07 23:29N 05°22' E 100°22'0 0.0
2016-Aug-07 22:29N 05°22' E 100°22'0 0.0
2016-Aug-07 21:29N 05°22' E 100°22'0 0.0
2016-Aug-07 20:29N 05°22' E 100°22'0 0.0
2016-Aug-07 19:29N 05°22' E 100°22'0 0.0
2016-Aug-07 18:29N 05°22' E 100°22'0 0.0
2016-Aug-07 17:29N 05°22' E 100°22'0 0.0
2016-Aug-07 16:29N 05°22' E 100°22'0 0.0
2016-Aug-07 15:29N 05°22' E 100°22'0 0.0
2016-Aug-07 14:29N 05°22' E 100°22'0 0.0
2016-Aug-07 13:29N 05°22' E 100°22'0 0.0
2016-Aug-07 12:29N 05°22' E 100°22'0 0.0
2016-Aug-07 11:29N 05°22' E 100°22'0 0.0
2016-Aug-07 10:17N 05°22' E 100°22'0 0.0
2016-Aug-07 09:29N 05°22' E 100°22'0 0.0
2016-Aug-07 08:29N 05°22' E 100°22'0 0.0
2016-Aug-07 07:29N 05°22' E 100°22'0 0.0
2016-Aug-07 06:29N 05°22' E 100°22'0 0.0
2016-Aug-07 04:29N 05°22' E 100°22'0 0.0
2016-Aug-07 03:29N 05°22' E 100°22'0 0.0
2016-Aug-07 02:29N 05°22' E 100°22'1 0.8
2016-Aug-07 01:33N 05°23' E 100°22'3 3.1
2016-Aug-07 00:32N 05°26' E 100°22'0 0.0
2016-Aug-06 23:33N 05°26' E 100°22'4 3.8
2016-Aug-06 22:33N 05°30' E 100°20'  

Dump ship's entire track history